バンダルスリブガワン の空港の天気 - METARとTAF

ブルネイ国際空港 ( WBSB / BWN ) - ブルネイ バンダルスリブガワン
飛行場実況気象(Metar)
観測時間08/07 05:30 BNT (08/06 21:30 UTC)
風向・風速南西 2m/s
視程10km以上
天気現象
少しの雲 雲底高度 460m
全天の4割程度の雲 雲底高度 4270m
全天の8割程度の雲 雲底高度 9140m
気温26℃
湿度89%
気圧1007hPa
METARWBSB 062130Z 22004KT 9999 FEW015 SCT140 BKN300 26/24 Q1007 NOSIG
過去の天気等 Google飛行場航空写真 Wunderground天気予報

過去48時間のMETAR

飛行場予報(TAF)
発表時間: 8/07 01:00 BNT (8/06 17:00 UTC)
予報対象時間: 7日2時 BNT ~ 8日8時 BNT
風向・風速西南西 3m/s
視程10km以上
少しの雲 雲底高度 460m
全天の8割程度の雲 雲底高度 4270m
7日11時 BNT ~ 7日13時 BNT に徐々に
風向・風速北西 6m/s
少しの雲 雲底高度 520m
TAF WBSB 061700Z 0618/0800 24006KT 9999 FEW015 BKN140
BECMG 0703/0705 31011KT FEW017